Time;durP1;ratioP1;P1;durP2;ratioP2;P2;SDS_P1;SDS_P2;PMS_P1;PMS_P2;Temp;Humidity;BMP_temperature;BMP_pressure;BME280_temperature;BME280_humidity;BME280_pressure;Samples;Min_cycle;Max_cycle;Signal;HPM_P1;HPM_P2
2023/01/08 00:00:11;;;;;;;10.90;6.63;;;;;;;9.61;69.49;99621.94;10241300;28;20051;-65
2023/01/08 00:05:13;;;;;;;8.68;6.10;;;;;;;9.59;70.08;99621.28;10228657;28;20061;-66
2023/01/08 00:10:14;;;;;;;10.85;6.75;;;;;;;9.65;70.25;99612.47;10238332;28;20063;-67
2023/01/08 00:15:15;;;;;;;7.93;5.70;;;;;;;9.71;70.51;99606.34;10231396;28;20043;-66
2023/01/08 00:20:17;;;;;;;8.18;5.53;;;;;;;9.84;70.32;99592.28;10249504;29;20070;-66
2023/01/08 00:25:19;;;;;;;9.50;5.97;;;;;;;10.02;70.27;99572.22;10235962;28;20312;-67
2023/01/08 00:30:21;;;;;;;7.60;4.80;;;;;;;10.07;70.24;99565.25;10239227;28;20051;-66
2023/01/08 00:35:22;;;;;;;9.35;5.75;;;;;;;10.10;70.29;99551.44;10238796;28;20047;-67
2023/01/08 00:40:23;;;;;;;8.52;5.35;;;;;;;10.18;70.12;99553.16;10227653;28;20056;-66
2023/01/08 00:45:25;;;;;;;8.73;5.70;;;;;;;10.29;70.31;99547.25;10232079;28;20052;-65
2023/01/08 00:50:27;;;;;;;7.68;4.30;;;;;;;10.30;70.72;99546.25;10230892;28;20052;-67
2023/01/08 00:55:29;;;;;;;10.20;4.80;;;;;;;10.41;70.51;99552.97;10234000;28;20068;-65
2023/01/08 01:00:31;;;;;;;6.95;5.13;;;;;;;10.58;70.21;99539.22;10226035;28;20058;-67
2023/01/08 01:05:32;;;;;;;6.68;4.15;;;;;;;10.67;70.28;99535.38;10224567;29;20075;-66
2023/01/08 01:10:33;;;;;;;12.73;6.90;;;;;;;10.59;70.49;99536.34;10241053;28;20076;-66
2023/01/08 01:15:35;;;;;;;12.05;7.38;;;;;;;10.28;71.09;99534.84;10225340;28;20055;-67
2023/01/08 01:20:37;;;;;;;11.13;7.40;;;;;;;10.01;71.72;99532.94;10228703;28;20083;-66
2023/01/08 01:25:38;;;;;;;8.85;6.72;;;;;;;9.99;71.75;99537.69;10235226;28;20051;-66
2023/01/08 01:30:40;;;;;;;10.38;6.88;;;;;;;9.96;71.69;99538.91;10215026;28;20127;-67
2023/01/08 01:35:41;;;;;;;13.18;6.90;;;;;;;9.96;71.80;99546.97;10232493;28;20464;-68
2023/01/08 01:40:43;;;;;;;10.68;6.75;;;;;;;10.08;71.60;99540.03;10212832;28;20043;-67
2023/01/08 01:45:44;;;;;;;13.38;6.80;;;;;;;10.25;71.44;99543.31;10224248;28;20087;-68
2023/01/08 01:50:50;;;;;;;6.55;5.15;;;;;;;10.36;71.24;99547.34;10224348;28;20119;-65
2023/01/08 01:55:52;;;;;;;9.82;5.35;;;;;;;10.49;71.18;99530.50;10227969;28;20447;-63
2023/01/08 02:00:56;;;;;;;6.55;4.20;;;;;;;10.61;70.83;99530.78;10216139;28;20059;-60
2023/01/08 02:06:18;;;;;;;8.45;3.38;;;;;;;10.72;71.11;99519.47;10220060;28;20083;-61
2023/01/08 02:11:34;;;;;;;4.28;3.38;;;;;;;10.89;70.53;99528.88;10234276;28;20060;-62
2023/01/08 02:16:44;;;;;;;4.82;3.20;;;;;;;10.99;70.63;99527.69;10211287;28;20051;-64
2023/01/08 02:22:01;;;;;;;3.97;2.58;;;;;;;11.02;70.26;99519.22;10220102;28;20047;-59
2023/01/08 02:27:05;;;;;;;4.47;2.53;;;;;;;11.14;70.36;99511.41;10226052;28;20043;-61
2023/01/08 02:32:07;;;;;;;3.38;2.22;;;;;;;11.21;69.98;99507.72;10223314;28;20350;-61
2023/01/08 02:37:08;;;;;;;4.63;2.60;;;;;;;11.29;69.48;99502.19;10226940;28;20554;-59
2023/01/08 02:42:19;;;;;;;6.55;2.83;;;;;;;11.19;69.99;99499.03;10225016;28;20103;-61
2023/01/08 02:47:27;;;;;;;5.38;2.65;;;;;;;11.10;70.31;99500.25;10247002;28;20063;-62
2023/01/08 02:52:33;;;;;;;7.90;3.15;;;;;;;11.02;70.40;99495.00;10238550;28;20054;-61
2023/01/08 02:57:34;;;;;;;5.75;2.90;;;;;;;10.99;70.62;99493.56;10231787;28;20056;-59
2023/01/08 03:02:40;;;;;;;6.03;3.22;;;;;;;10.94;71.13;99479.91;10220206;28;20052;-58
2023/01/08 03:07:42;;;;;;;6.93;3.30;;;;;;;10.90;71.14;99465.19;10228060;28;20051;-59
2023/01/08 03:12:52;;;;;;;5.72;3.47;;;;;;;10.87;71.45;99471.78;10230888;28;20087;-58
2023/01/08 03:18:00;;;;;;;7.05;4.75;;;;;;;10.87;71.65;99469.09;10223124;28;20136;-61
2023/01/08 03:23:06;;;;;;;4.72;3.40;;;;;;;10.71;72.12;99459.50;10233531;28;20054;-59
2023/01/08 03:28:17;;;;;;;5.97;3.72;;;;;;;10.68;72.12;99465.31;10221546;28;20062;-59
2023/01/08 03:33:21;;;;;;;7.78;4.30;;;;;;;10.60;72.75;99456.56;10226965;28;20545;-60
2023/01/08 03:38:29;;;;;;;6.97;4.75;;;;;;;10.53;73.05;99451.16;10242331;29;20071;-60
2023/01/08 03:43:31;;;;;;;7.47;4.90;;;;;;;10.52;72.81;99442.28;10238280;28;20048;-62
2023/01/08 03:48:35;;;;;;;8.68;4.95;;;;;;;10.45;73.46;99440.56;10246478;28;20444;-59
2023/01/08 03:53:36;;;;;;;10.45;6.05;;;;;;;10.40;73.71;99445.69;10237992;28;20796;-60
2023/01/08 03:58:38;;;;;;;7.47;4.88;;;;;;;10.36;74.03;99425.63;10244560;28;20056;-59
2023/01/08 04:03:39;;;;;;;8.32;5.53;;;;;;;10.34;74.32;99428.50;10241898;28;20063;-61
2023/01/08 04:08:40;;;;;;;9.88;5.97;;;;;;;10.34;74.74;99419.63;10241105;28;20051;-62
2023/01/08 04:13:42;;;;;;;9.85;6.68;;;;;;;10.37;74.91;99411.16;10227235;28;20051;-59
2023/01/08 04:18:43;;;;;;;11.13;6.57;;;;;;;10.30;75.21;99397.69;10220648;29;20044;-61
2023/01/08 04:23:44;;;;;;;11.90;6.43;;;;;;;10.23;75.58;99394.09;10218679;28;20055;-58
2023/01/08 04:28:46;;;;;;;13.57;6.63;;;;;;;10.30;75.46;99389.63;10205168;29;20376;-60
2023/01/08 04:33:47;;;;;;;12.57;7.25;;;;;;;10.28;75.95;99386.28;10211194;28;20047;-59
2023/01/08 04:38:49;;;;;;;14.45;7.53;;;;;;;10.31;76.05;99380.56;10204805;28;20147;-59
2023/01/08 04:43:50;;;;;;;11.40;6.97;;;;;;;10.35;75.91;99380.97;10216707;28;20114;-59
2023/01/08 04:48:51;;;;;;;15.68;7.80;;;;;;;10.34;76.11;99380.16;10210539;28;20078;-60
2023/01/08 04:53:53;;;;;;;11.93;7.75;;;;;;;10.36;76.11;99375.41;10214139;28;20507;-60
2023/01/08 04:58:54;;;;;;;12.25;7.43;;;;;;;10.39;76.43;99375.03;10209522;28;20517;-60
2023/01/08 05:03:58;;;;;;;13.40;7.07;;;;;;;10.35;76.73;99376.44;10204764;29;20468;-59
2023/01/08 05:09:00;;;;;;;15.35;8.05;;;;;;;10.41;76.81;99367.59;10211513;28;20055;-59
2023/01/08 05:14:01;;;;;;;14.50;7.75;;;;;;;10.35;77.23;99363.03;10201752;28;20139;-59
2023/01/08 05:19:02;;;;;;;13.20;6.72;;;;;;;10.37;77.27;99370.84;10208134;28;20554;-60
2023/01/08 05:24:04;;;;;;;13.80;6.78;;;;;;;10.40;77.29;99368.59;10220408;28;20077;-60
2023/01/08 05:29:05;;;;;;;10.68;6.95;;;;;;;10.40;77.56;99365.09;10204268;29;20132;-59
2023/01/08 05:34:06;;;;;;;11.75;6.60;;;;;;;10.39;78.02;99363.47;10198409;28;20064;-59
2023/01/08 05:39:08;;;;;;;10.30;6.25;;;;;;;10.34;78.28;99358.66;10210218;28;20051;-59
2023/01/08 05:44:09;;;;;;;11.43;6.10;;;;;;;10.29;78.53;99361.09;10200708;29;20118;-59
2023/01/08 05:49:11;;;;;;;11.15;6.03;;;;;;;10.39;78.36;99366.13;10205425;28;20059;-59
2023/01/08 05:54:13;;;;;;;11.75;6.28;;;;;;;10.42;78.10;99363.84;10198897;28;20079;-59
2023/01/08 05:59:14;;;;;;;10.07;5.45;;;;;;;10.43;78.47;99359.34;10206184;28;20112;-59
2023/01/08 06:04:16;;;;;;;8.63;4.80;;;;;;;10.34;78.87;99360.53;10213141;28;20056;-59
2023/01/08 06:09:18;;;;;;;8.82;4.85;;;;;;;10.33;78.65;99370.44;10200080;28;20060;-61
2023/01/08 06:14:20;;;;;;;8.93;5.40;;;;;;;10.29;78.92;99369.97;10203869;28;20144;-60
2023/01/08 06:19:21;;;;;;;7.75;4.10;;;;;;;10.25;78.89;99360.66;10207688;28;20111;-59
2023/01/08 06:24:23;;;;;;;8.98;5.07;;;;;;;10.28;78.90;99362.13;10208698;28;20057;-60
2023/01/08 06:29:24;;;;;;;9.23;5.05;;;;;;;10.22;78.88;99363.72;10208809;28;20055;-60
2023/01/08 06:34:25;;;;;;;12.30;6.22;;;;;;;10.27;78.77;99365.84;10200068;28;20060;-60
2023/01/08 06:39:27;;;;;;;8.20;4.63;;;;;;;10.29;78.71;99358.41;10198357;28;20122;-60
2023/01/08 06:44:28;;;;;;;10.32;4.55;;;;;;;10.24;78.66;99353.63;10206918;28;20148;-60
2023/01/08 06:49:29;;;;;;;9.13;4.30;;;;;;;10.30;78.65;99357.41;10211156;29;20090;-60
2023/01/08 06:54:31;;;;;;;9.52;4.53;;;;;;;10.32;78.35;99356.16;10196577;29;20072;-60
2023/01/08 06:59:32;;;;;;;11.10;5.45;;;;;;;10.25;78.62;99368.72;10210807;28;20142;-59
2023/01/08 07:04:34;;;;;;;9.00;4.88;;;;;;;10.27;78.81;99369.34;10203525;29;20111;-59
2023/01/08 07:09:35;;;;;;;8.13;5.18;;;;;;;10.27;78.84;99365.84;10200364;28;20106;-60
2023/01/08 07:14:36;;;;;;;6.43;4.47;;;;;;;10.24;78.77;99361.69;10220135;28;20443;-60
2023/01/08 07:19:38;;;;;;;4.68;3.50;;;;;;;10.21;78.85;99382.72;10214672;28;20067;-61
2023/01/08 07:24:39;;;;;;;6.75;3.13;;;;;;;10.21;78.87;99378.19;10203092;28;20075;-65
2023/01/08 07:29:40;;;;;;;6.00;3.15;;;;;;;10.16;79.06;99382.50;10207419;28;20102;-65
2023/01/08 07:34:42;;;;;;;6.40;3.15;;;;;;;10.19;79.28;99382.94;10202209;28;20078;-65
2023/01/08 07:39:43;;;;;;;5.03;2.97;;;;;;;10.23;78.93;99386.88;10204033;28;20462;-66
2023/01/08 07:44:45;;;;;;;5.75;3.35;;;;;;;10.22;78.83;99377.16;10213346;28;20067;-66
2023/01/08 07:49:46;;;;;;;4.15;2.67;;;;;;;10.24;78.68;99383.16;10207856;28;20075;-66
2023/01/08 07:54:47;;;;;;;5.90;3.00;;;;;;;10.22;78.82;99384.41;10193024;28;20052;-66
2023/01/08 07:59:49;;;;;;;5.93;3.08;;;;;;;10.24;78.89;99375.09;10196007;28;20060;-66
2023/01/08 08:04:50;;;;;;;5.15;2.75;;;;;;;10.26;78.95;99380.28;10200617;28;20047;-65
2023/01/08 08:09:51;;;;;;;4.57;2.83;;;;;;;10.31;79.01;99380.56;10193494;28;20056;-66
2023/01/08 08:14:53;;;;;;;5.60;3.08;;;;;;;10.32;79.14;99368.78;10206936;28;20123;-66
2023/01/08 08:19:54;;;;;;;4.40;2.78;;;;;;;10.40;78.82;99373.16;10206247;29;20094;-66
2023/01/08 08:24:55;;;;;;;6.03;2.97;;;;;;;10.40;78.76;99373.16;10207962;28;20075;-66
2023/01/08 08:29:57;;;;;;;5.50;2.97;;;;;;;10.46;78.92;99377.72;10209018;28;20044;-65
2023/01/08 08:34:59;;;;;;;7.50;3.97;;;;;;;10.47;78.74;99376.72;10217701;28;20071;-66
2023/01/08 08:40:00;;;;;;;5.68;2.85;;;;;;;10.46;78.45;99383.09;10207880;28;20143;-65
2023/01/08 08:45:02;;;;;;;5.20;3.22;;;;;;;10.43;78.59;99384.34;10212319;28;20047;-66
2023/01/08 08:50:05;;;;;;;8.02;3.78;;;;;;;10.30;79.15;99384.25;10203433;28;20047;-66
2023/01/08 08:55:07;;;;;;;4.03;3.15;;;;;;;10.26;79.34;99383.78;10211660;28;20070;-66
2023/01/08 09:00:09;;;;;;;7.80;3.65;;;;;;;10.21;79.35;99380.88;10211242;28;20135;-67
2023/01/08 09:05:10;;;;;;;6.07;2.80;;;;;;;10.26;79.03;99370.38;10207311;29;20483;-67
2023/01/08 09:10:12;;;;;;;5.25;2.85;;;;;;;10.29;78.80;99379.91;10202924;28;20151;-67
2023/01/08 09:15:13;;;;;;;4.90;3.42;;;;;;;10.26;79.16;99367.69;10204862;28;20103;-66
2023/01/08 09:20:15;;;;;;;5.15;2.58;;;;;;;10.27;79.16;99372.03;10201290;29;20464;-65
2023/01/08 09:25:16;;;;;;;4.75;2.70;;;;;;;10.24;79.52;99368.91;10199969;28;20095;-66
2023/01/08 09:30:18;;;;;;;5.80;3.25;;;;;;;10.27;79.31;99377.41;10202542;28;20055;-65
2023/01/08 09:35:19;;;;;;;6.45;3.10;;;;;;;10.31;79.19;99384.06;10215612;28;20894;-66
2023/01/08 09:40:25;;;;;;;4.55;3.22;;;;;;;10.38;79.28;99389.47;10211377;28;20093;-66
2023/01/08 09:45:29;;;;;;;6.43;3.17;;;;;;;10.38;79.52;99381.41;10212554;28;20574;-66
2023/01/08 09:50:32;;;;;;;6.88;3.67;;;;;;;10.42;79.57;99389.91;10214083;28;20047;-66
2023/01/08 09:55:34;;;;;;;6.90;3.50;;;;;;;10.37;79.76;99384.28;10210758;28;20047;-66
2023/01/08 10:00:35;;;;;;;4.90;3.25;;;;;;;10.43;79.28;99370.91;10215113;28;20055;-66
2023/01/08 10:05:37;;;;;;;5.72;3.38;;;;;;;10.44;79.48;99372.53;10212437;28;20101;-66
2023/01/08 10:10:40;;;;;;;4.25;3.03;;;;;;;10.49;79.35;99372.78;10206723;28;20056;-66
2023/01/08 10:15:41;;;;;;;4.85;3.17;;;;;;;10.58;79.43;99381.50;10204635;28;20060;-66
2023/01/08 10:20:43;;;;;;;8.48;3.25;;;;;;;10.55;79.39;99379.22;10205876;29;20163;-66
2023/01/08 10:25:55;;;;;;;5.90;3.15;;;;;;;10.58;79.22;99357.31;10212132;28;20102;-66
2023/01/08 10:31:03;;;;;;;6.45;2.78;;;;;;;10.65;79.29;99346.59;10215420;28;20470;-66
2023/01/08 10:36:07;;;;;;;6.03;3.65;;;;;;;10.61;79.47;99343.50;10210853;28;20392;-65
2023/01/08 10:41:12;;;;;;;5.95;3.20;;;;;;;10.73;79.18;99324.91;10202877;28;20102;-66
2023/01/08 10:46:23;;;;;;;6.15;2.75;;;;;;;10.79;79.08;99324.09;10195711;28;20994;-66
2023/01/08 10:51:27;;;;;;;3.67;2.60;;;;;;;10.90;79.53;99333.47;10211564;28;20470;-66
2023/01/08 10:56:39;;;;;;;5.70;3.38;;;;;;;10.88;79.43;99324.75;10201804;28;20631;-65
2023/01/08 11:01:46;;;;;;;5.78;3.90;;;;;;;10.95;79.06;99314.00;10199538;29;20116;-66
2023/01/08 11:06:47;;;;;;;5.37;3.90;;;;;;;11.04;79.10;99304.72;10206775;28;20051;-66
2023/01/08 11:11:49;;;;;;;8.23;3.58;;;;;;;11.13;79.26;99305.34;10204184;28;20283;-64
2023/01/08 11:16:50;;;;;;;4.70;3.28;;;;;;;11.20;79.25;99296.25;10207664;28;20130;-62
2023/01/08 11:21:58;;;;;;;3.63;2.95;;;;;;;11.24;78.81;99302.06;10210333;28;20148;-64
2023/01/08 11:27:15;;;;;;;3.35;2.60;;;;;;;11.23;78.91;99289.63;10202220;28;20498;-63
2023/01/08 11:32:36;;;;;;;5.13;3.38;;;;;;;11.31;78.77;99278.66;10200919;29;20055;-63
2023/01/08 11:37:40;;;;;;;4.15;2.70;;;;;;;11.50;78.80;99261.66;10191633;28;20126;-64
2023/01/08 11:43:06;;;;;;;5.57;2.80;;;;;;;11.52;78.81;99242.63;10208829;28;20115;-62
2023/01/08 11:48:41;;;;;;;5.78;2.60;;;;;;;11.48;78.59;99246.78;10195001;28;20052;-64
2023/01/08 11:53:56;;;;;;;5.35;2.65;;;;;;;11.51;78.66;99243.66;10200599;28;20138;-63
2023/01/08 11:59:20;;;;;;;3.75;2.55;;;;;;;11.56;78.23;99219.63;10211844;28;20056;-61
2023/01/08 12:04:57;;;;;;;3.55;2.13;;;;;;;11.61;78.10;99205.53;10207521;28;20048;-63
2023/01/08 12:10:10;;;;;;;4.38;2.15;;;;;;;11.70;77.62;99197.03;10212646;28;20701;-64
2023/01/08 12:15:11;;;;;;;3.42;1.50;;;;;;;11.77;77.99;99205.09;10205414;28;20143;-65
2023/01/08 12:20:29;;;;;;;4.70;2.03;;;;;;;11.81;77.48;99192.00;10214311;28;20063;-65
2023/01/08 12:25:43;;;;;;;6.15;2.20;;;;;;;11.87;77.80;99175.03;10207041;28;20145;-65
2023/01/08 12:30:50;;;;;;;2.92;2.20;;;;;;;11.86;77.89;99170.69;10207922;28;20055;-66
2023/01/08 12:35:53;;;;;;;;;;;;;;;11.80;77.84;99163.47;10214899;28;20450;-65
2023/01/08 12:40:59;;;;;;;2.33;1.42;;;;;;;11.72;77.62;99151.06;10201702;28;19986;-66
2023/01/08 12:46:02;;;;;;;2.13;1.30;;;;;;;11.83;77.68;99155.78;10202599;28;20048;-64
2023/01/08 12:51:16;;;;;;;1.80;1.60;;;;;;;11.80;77.12;99148.13;10201179;28;20059;-65
2023/01/08 12:56:36;;;;;;;3.80;1.33;;;;;;;11.91;77.15;99133.19;10209430;28;20054;-65
2023/01/08 13:01:46;;;;;;;2.63;1.30;;;;;;;11.83;77.27;99128.84;10206062;28;20087;-65
2023/01/08 13:07:00;;;;;;;2.63;1.63;;;;;;;11.89;76.88;99124.50;10204623;28;20039;-66
2023/01/08 13:12:01;;;;;;;3.22;1.42;;;;;;;11.95;76.95;99115.56;10212173;28;20073;-64
2023/01/08 13:17:06;;;;;;;2.17;1.05;;;;;;;12.04;76.75;99125.03;10205676;28;20111;-64
2023/01/08 13:22:27;;;;;;;1.50;0.80;;;;;;;12.09;76.84;99110.94;10213151;28;20044;-65
2023/01/08 13:27:28;;;;;;;2.20;1.10;;;;;;;12.10;76.36;99116.13;10207498;28;20067;-65
2023/01/08 13:32:33;;;;;;;1.13;0.77;;;;;;;12.09;76.58;99108.25;10206400;28;20110;-66
2023/01/08 13:37:34;;;;;;;2.13;0.65;;;;;;;12.12;76.34;99106.97;10208645;28;20091;-66
2023/01/08 13:42:40;;;;;;;2.00;0.82;;;;;;;12.07;75.86;99107.63;10206340;28;20187;-66
2023/01/08 13:47:42;;;;;;;3.08;0.70;;;;;;;12.06;75.83;99101.41;10206410;28;20043;-67
2023/01/08 13:52:54;;;;;;;1.40;0.65;;;;;;;12.06;76.07;99101.41;10208700;29;20099;-65
2023/01/08 13:58:12;;;;;;;0.90;0.70;;;;;;;11.99;76.08;99091.72;10211185;28;20138;-66
2023/01/08 14:03:28;;;;;;;1.02;0.93;;;;;;;11.90;76.22;99089.28;10209771;29;20114;-68
2023/01/08 14:08:29;;;;;;;3.40;1.05;;;;;;;11.99;75.75;99081.78;10225630;28;20047;-67
2023/01/08 14:13:34;;;;;;;2.75;1.30;;;;;;;12.01;76.03;99077.00;10221814;28;20451;-66
2023/01/08 14:18:39;;;;;;;1.85;1.58;;;;;;;12.01;75.63;99076.19;10205678;29;20360;-66
2023/01/08 14:23:46;;;;;;;1.63;1.00;;;;;;;12.02;75.54;99057.09;10200869;28;20134;-64
2023/01/08 14:28:53;;;;;;;1.88;0.80;;;;;;;12.06;75.30;99061.00;10217241;28;20060;-62
2023/01/08 14:33:56;;;;;;;2.50;1.00;;;;;;;12.00;76.07;99061.06;10202749;28;20086;-64
2023/01/08 14:38:57;;;;;;;2.50;1.20;;;;;;;11.87;75.88;99062.75;10198993;28;20368;-64
2023/01/08 14:43:59;;;;;;;1.20;0.70;;;;;;;11.92;75.81;99058.63;10210357;28;20138;-62
2023/01/08 14:49:00;;;;;;;2.00;0.68;;;;;;;11.89;76.01;99057.19;10209828;28;20055;-63
2023/01/08 14:54:04;;;;;;;1.00;0.90;;;;;;;11.86;76.18;99052.19;10206147;28;20111;-65
2023/01/08 14:59:09;;;;;;;1.65;1.30;;;;;;;11.88;75.49;99059.00;10208715;28;20082;-64
2023/01/08 15:04:17;;;;;;;2.25;0.93;;;;;;;11.91;75.50;99041.66;10211284;28;20080;-65
2023/01/08 15:09:30;;;;;;;1.35;0.63;;;;;;;11.80;75.59;99036.91;10204196;29;20493;-64
2023/01/08 15:14:35;;;;;;;1.15;0.63;;;;;;;11.76;75.37;99033.81;10206032;28;20103;-66
2023/01/08 15:19:48;;;;;;;2.80;0.98;;;;;;;11.73;75.27;99019.97;10203179;28;20055;-65
2023/01/08 15:24:57;;;;;;;2.63;0.73;;;;;;;11.68;75.17;99016.06;10199410;28;20052;-65
2023/01/08 15:29:59;;;;;;;2.35;0.82;;;;;;;11.68;75.15;99016.06;10208412;28;20083;-65
2023/01/08 15:35:11;;;;;;;1.58;1.10;;;;;;;11.62;75.08;99030.38;10224955;28;20818;-65
2023/01/08 15:40:13;;;;;;;2.20;0.90;;;;;;;11.60;75.00;99023.56;10212097;28;20142;-65
2023/01/08 15:45:20;;;;;;;3.10;0.90;;;;;;;11.66;74.81;99028.09;10203456;28;20124;-65
2023/01/08 15:50:23;;;;;;;1.38;0.90;;;;;;;11.62;75.10;99013.41;10205362;28;20146;-64
2023/01/08 15:55:25;;;;;;;1.38;0.60;;;;;;;11.56;75.58;99012.41;10203801;28;20183;-65
2023/01/08 16:00:26;;;;;;;1.10;0.60;;;;;;;11.53;76.03;99010.13;10199697;28;20392;-66
2023/01/08 16:05:29;;;;;;;3.90;0.85;;;;;;;11.63;75.14;99006.97;10203523;28;20103;-64
2023/01/08 16:10:31;;;;;;;1.40;0.70;;;;;;;11.62;75.44;99000.78;10222216;28;20053;-63
2023/01/08 16:15:32;;;;;;;2.65;1.13;;;;;;;11.62;75.57;99005.34;10225448;28;20062;-63
2023/01/08 16:20:34;;;;;;;3.00;0.90;;;;;;;11.58;75.82;98996.88;10225580;29;20048;-61
2023/01/08 16:25:38;;;;;;;2.40;1.13;;;;;;;11.62;75.10;98987.31;10228309;28;20406;-61
2023/01/08 16:30:41;;;;;;;2.58;1.30;;;;;;;11.60;75.61;98985.91;10232871;28;20047;-61
2023/01/08 16:35:42;;;;;;;2.33;1.63;;;;;;;11.57;75.28;98989.00;10217223;28;20041;-63
2023/01/08 16:40:44;;;;;;;4.38;1.60;;;;;;;11.54;75.32;98981.38;10218402;28;20086;-61
2023/01/08 16:45:46;;;;;;;3.10;1.00;;;;;;;11.47;75.42;98984.09;10217538;28;20146;-61
2023/01/08 16:50:48;;;;;;;2.22;1.23;;;;;;;11.45;75.30;98967.34;10220441;28;20066;-61
2023/01/08 16:55:49;;;;;;;2.33;1.13;;;;;;;11.40;75.51;98964.50;10210465;28;20102;-62
2023/01/08 17:00:51;;;;;;;1.40;1.00;;;;;;;11.35;75.48;98962.41;10216605;28;20092;-62
2023/01/08 17:05:54;;;;;;;1.70;0.90;;;;;;;11.29;75.16;98958.75;10238748;28;20051;-61
2023/01/08 17:10:55;;;;;;;1.85;1.17;;;;;;;11.21;75.50;98953.59;10207942;29;20176;-60
2023/01/08 17:15:57;;;;;;;2.28;1.20;;;;;;;11.22;75.47;98941.81;10203300;28;20068;-62
2023/01/08 17:21:01;;;;;;;2.22;1.30;;;;;;;11.19;75.33;98949.47;10218614;28;20071;-62
2023/01/08 17:26:07;;;;;;;3.58;1.05;;;;;;;11.17;75.16;98940.81;10213704;28;20075;-63
2023/01/08 17:31:12;;;;;;;1.90;1.00;;;;;;;11.24;75.17;98941.59;10209676;28;20052;-61
2023/01/08 17:36:16;;;;;;;1.85;0.98;;;;;;;11.28;74.97;98938.25;10215058;28;20055;-61
2023/01/08 17:46:41;;;;;;;3.40;1.85;;;;;;;11.31;74.75;98932.47;10214224;28;20071;-60
2023/01/08 17:51:44;;;;;;;1.55;0.88;;;;;;;11.31;74.37;98915.47;10209137;28;20047;-63
2023/01/08 17:56:47;;;;;;;1.80;1.10;;;;;;;11.35;74.36;98916.69;10201653;29;20048;-61
2023/01/08 18:01:51;;;;;;;0.95;0.75;;;;;;;11.42;74.69;98905.91;10200547;28;20103;-61
2023/01/08 18:06:53;;;;;;;1.80;0.80;;;;;;;11.48;74.29;98910.41;10203367;28;20139;-61
2023/01/08 18:11:54;;;;;;;2.45;0.60;;;;;;;11.49;74.29;98903.97;10209115;28;20074;-61
2023/01/08 18:16:56;;;;;;;1.30;0.77;;;;;;;11.52;74.53;98890.09;10210267;28;20574;-62
2023/01/08 18:21:57;;;;;;;1.13;1.00;;;;;;;11.50;74.58;98884.91;10206252;28;20095;-63
2023/01/08 18:26:58;;;;;;;1.98;0.98;;;;;;;11.55;73.81;98878.06;10213043;28;20047;-63
2023/01/08 18:32:00;;;;;;;2.47;1.00;;;;;;;11.61;73.70;98875.34;10214746;29;20116;-60
2023/01/08 18:37:02;;;;;;;1.40;0.57;;;;;;;11.64;73.80;98863.28;10210805;28;20043;-60
2023/01/08 18:47:26;;;;;;;3.10;1.40;;;;;;;11.60;74.03;98862.91;10207773;29;20082;-63
2023/01/08 18:52:28;;;;;;;2.55;1.58;;;;;;;11.68;73.33;98859.13;10206390;29;20067;-60
2023/01/08 18:57:30;;;;;;;4.75;2.05;;;;;;;11.72;73.68;98860.31;10213281;28;20106;-59
2023/01/08 19:02:34;;;;;;;5.45;2.38;;;;;;;11.73;73.72;98851.22;10210381;28;20051;-62
2023/01/08 19:07:35;;;;;;;6.72;2.22;;;;;;;11.76;73.26;98839.19;10207154;28;20062;-61
2023/01/08 19:12:38;;;;;;;5.18;3.15;;;;;;;11.74;73.25;98847.47;10212898;28;20059;-60
2023/01/08 19:17:39;;;;;;;4.32;2.45;;;;;;;11.80;73.39;98841.19;10217886;28;20047;-59
2023/01/08 19:22:40;;;;;;;6.68;4.25;;;;;;;11.82;73.48;98849.88;10214715;28;20087;-60
2023/01/08 19:27:43;;;;;;;6.03;3.42;;;;;;;11.82;72.82;98822.13;10206683;28;20082;-60
2023/01/08 19:32:47;;;;;;;4.80;3.30;;;;;;;11.78;73.31;98839.78;10205581;28;20048;-59
2023/01/08 19:37:49;;;;;;;3.85;2.35;;;;;;;11.75;73.54;98829.44;10221319;28;20043;-59
2023/01/08 19:48:10;;;;;;;2.75;1.05;;;;;;;11.78;73.22;98799.41;10206812;28;20056;-61
2023/01/08 19:53:12;;;;;;;2.40;1.00;;;;;;;11.78;73.28;98792.13;10211076;28;20072;-60
2023/01/08 19:58:17;;;;;;;2.17;0.73;;;;;;;11.75;73.23;98772.91;10209039;28;20107;-60
2023/01/08 20:03:22;;;;;;;1.73;0.85;;;;;;;11.67;73.19;98774.00;10207109;28;20094;-59
2023/01/08 20:08:24;;;;;;;1.33;0.80;;;;;;;11.63;73.32;98748.59;10213510;28;20169;-60
2023/01/08 20:13:25;;;;;;;2.20;0.90;;;;;;;11.60;73.21;98749.06;10210036;28;20085;-59
2023/01/08 20:18:26;;;;;;;2.35;1.02;;;;;;;11.65;73.31;98739.28;10209453;28;20071;-60
2023/01/08 20:23:28;;;;;;;1.42;0.70;;;;;;;11.57;73.42;98725.25;10202297;28;20055;-60
2023/01/08 20:28:29;;;;;;;3.38;0.80;;;;;;;11.49;73.25;98731.75;10214087;29;20067;-59
2023/01/08 20:33:31;;;;;;;4.38;0.80;;;;;;;11.52;73.25;98721.38;10218297;28;20510;-59
2023/01/08 20:38:32;;;;;;;1.23;0.80;;;;;;;11.50;72.92;98726.16;10212406;28;20075;-63
2023/01/08 20:43:34;;;;;;;1.95;1.15;;;;;;;11.52;72.94;98712.50;10213048;28;20460;-59
2023/01/08 20:48:36;;;;;;;2.08;1.20;;;;;;;11.54;72.94;98699.63;10220949;28;20051;-60
2023/01/08 20:53:47;;;;;;;4.68;1.83;;;;;;;11.57;72.98;98684.91;10215863;28;20127;-60
2023/01/08 20:58:49;;;;;;;2.95;1.20;;;;;;;11.48;72.73;98693.28;10204964;28;20167;-59
2023/01/08 21:03:54;;;;;;;1.67;1.02;;;;;;;11.39;72.66;98689.22;10229567;28;20051;-60
2023/01/08 21:08:58;;;;;;;1.30;0.90;;;;;;;11.38;73.00;98678.69;10218369;28;20056;-60
2023/01/08 21:14:00;;;;;;;1.95;0.80;;;;;;;11.36;72.90;98664.66;10223526;28;20048;-60
2023/01/08 21:19:02;;;;;;;0.98;0.70;;;;;;;11.48;72.57;98660.97;10228031;28;20488;-61
2023/01/08 21:24:04;;;;;;;3.33;1.83;;;;;;;11.54;71.90;98658.44;10228109;28;20043;-59
2023/01/08 21:29:06;;;;;;;1.52;0.73;;;;;;;11.56;71.82;98651.78;10225717;28;20048;-59
2023/01/08 21:34:09;;;;;;;3.40;1.20;;;;;;;11.56;71.77;98651.78;10233315;28;20055;-59
2023/01/08 21:39:10;;;;;;;2.20;1.50;;;;;;;11.51;71.82;98630.09;10218581;28;20082;-61
2023/01/08 21:49:35;;;;;;;5.63;3.63;;;;;;;11.52;71.98;98619.13;10216804;28;20051;-63
2023/01/08 21:54:39;;;;;;;6.03;3.25;;;;;;;11.53;72.16;98595.72;10226702;28;20112;-62
2023/01/08 21:59:41;;;;;;;3.83;2.55;;;;;;;11.55;71.92;98588.25;10214813;28;20083;-62
2023/01/08 22:04:43;;;;;;;3.95;2.90;;;;;;;11.55;72.07;98595.50;10232711;28;20058;-61
2023/01/08 22:09:45;;;;;;;2.55;1.45;;;;;;;11.35;72.68;98571.53;10214865;28;20089;-60
2023/01/08 22:14:46;;;;;;;2.47;1.33;;;;;;;11.24;73.05;98554.28;10218745;28;20075;-59
2023/01/08 22:19:47;;;;;;;2.83;1.30;;;;;;;11.15;72.97;98548.38;10217145;28;20078;-61
2023/01/08 22:24:51;;;;;;;3.13;1.30;;;;;;;11.14;73.21;98541.34;10212766;28;20180;-61
2023/01/08 22:29:53;;;;;;;2.78;1.20;;;;;;;11.11;73.02;98539.09;10195338;29;20102;-59
2023/01/08 22:34:54;;;;;;;3.10;1.17;;;;;;;11.09;73.21;98525.06;10209338;28;20485;-59
2023/01/08 22:39:56;;;;;;;4.13;2.22;;;;;;;11.03;73.52;98512.53;10214856;28;20076;-61
2023/01/08 22:44:57;;;;;;;3.85;1.55;;;;;;;10.99;74.03;98509.47;10220907;28;20517;-60
2023/01/08 22:49:58;;;;;;;2.50;0.98;;;;;;;10.97;73.88;98500.78;10219500;28;20137;-62
2023/01/08 22:55:01;;;;;;;1.65;0.90;;;;;;;10.89;74.01;98491.16;10207946;28;20087;-61
2023/01/08 23:00:05;;;;;;;1.80;1.25;;;;;;;10.82;74.18;98481.53;10209300;28;20048;-63
2023/01/08 23:05:07;;;;;;;1.55;0.95;;;;;;;10.73;74.23;98480.19;10210334;29;20162;-60
2023/01/08 23:10:09;;;;;;;1.92;0.80;;;;;;;10.65;74.53;98471.38;10199223;28;20507;-59
2023/01/08 23:15:10;;;;;;;1.85;0.70;;;;;;;10.70;74.66;98468.84;10205875;28;20082;-61
2023/01/08 23:20:13;;;;;;;2.88;0.70;;;;;;;10.69;74.58;98461.00;10210932;28;20154;-61
2023/01/08 23:25:15;;;;;;;2.55;0.88;;;;;;;10.65;74.65;98460.63;10209365;28;20078;-61
2023/01/08 23:30:16;;;;;;;3.67;1.00;;;;;;;10.59;74.87;98456.16;10217354;28;20613;-60
2023/01/08 23:35:17;;;;;;;1.48;0.80;;;;;;;10.56;75.30;98456.56;10207573;28;20083;-62
2023/01/08 23:40:19;;;;;;;2.75;1.13;;;;;;;10.52;75.35;98456.22;10207785;28;20087;-62
2023/01/08 23:45:20;;;;;;;1.20;0.80;;;;;;;10.55;75.37;98454.94;10208264;28;20138;-62
2023/01/08 23:50:21;;;;;;;2.15;0.70;;;;;;;10.52;75.59;98460.75;10206783;28;20829;-61